Vronskiy — C4AY2 — position and weather

sailwx.info

Track history (hours):
 
Tides and Currents Weather Stations Pressure Air Temp Water Temp Dewpoint Dewpoint Depression Visibility Wind Speed Wind Dir Waves Ship Positions

Vronskiy

Last reported at 2016-Feb-01 12:33 UTC. Time now 2016-Feb-14 08:11 UTC.
Position N 36°50' W 002°28'.
Warning: this ship's position is 12 days out of date.

Length 131 m; draft 5.2 m.

Type: Passenger vessel. MMSI: 210030000.

Date/timePositionNaut miles runAvg speedWind from/ knotsBaromVisibWave heightAir tempDewpointWater temp
2016-Feb-01 12:33N 36°50' W 002°28'0 0.0
2016-Feb-01 11:33N 36°50' W 002°28'0 0.0
2016-Feb-01 10:33N 36°50' W 002°28'0 0.0
2016-Feb-01 09:33N 36°50' W 002°28'0 0.0
2016-Feb-01 08:27N 36°50' W 002°28'0 0.0
2016-Feb-01 07:33N 36°50' W 002°28'0 0.0
2016-Feb-01 06:33N 36°50' W 002°28'2 1.9
2016-Feb-01 05:33N 36°48' W 002°27'1212.4
2016-Feb-01 04:32N 36°36' W 002°29'2512.5
2016-Feb-01 02:33N 36°12' W 002°37'1313.5
2016-Feb-01 01:33N 35°59' W 002°42'46 3.8
2016-Jan-31 13:33N 36°43' W 002°29'7 6.5
2016-Jan-31 12:32N 36°50' W 002°28'0 0.0
2016-Jan-31 11:32N 36°50' W 002°28'0 0.0
2016-Jan-31 10:32N 36°50' W 002°28'0 0.0
2016-Jan-31 09:32N 36°50' W 002°28'0 0.0
2016-Jan-31 08:32N 36°50' W 002°28'0 0.0
2016-Jan-31 07:32N 36°50' W 002°28'0 0.0
2016-Jan-31 06:32N 36°50' W 002°28'2 1.6
2016-Jan-31 05:34N 36°49' W 002°28'4 0.3
2016-Jan-30 13:33N 36°45' W 002°29'5 5.4
2016-Jan-30 12:32N 36°50' W 002°28'0 0.0
2016-Jan-30 11:32N 36°50' W 002°28'0 0.0
2016-Jan-30 10:29N 36°50' W 002°28'0 0.0
2016-Jan-30 09:32N 36°50' W 002°28'0 0.0
2016-Jan-30 08:32N 36°50' W 002°28'0 0.0
2016-Jan-30 07:32N 36°50' W 002°28'0 0.0
2016-Jan-30 06:32N 36°50' W 002°28'2 2.2
2016-Jan-30 05:33N 36°48' W 002°28'5 0.3
2016-Jan-29 13:33N 36°43' W 002°29'7 6.7
2016-Jan-29 12:33N 36°50' W 002°28'0 0.0
2016-Jan-29 11:33N 36°50' W 002°28'0 0.0
2016-Jan-29 10:33N 36°50' W 002°28'0 0.0
2016-Jan-29 09:33N 36°50' W 002°28'0 0.0
2016-Jan-29 08:33N 36°50' W 002°28'0 0.0
2016-Jan-29 07:33N 36°50' W 002°28'0 0.0
2016-Jan-29 06:33N 36°50' W 002°28'2 2.2
2016-Jan-29 05:33N 36°48' W 002°27'5 0.3
2016-Jan-28 13:33N 36°43' W 002°29'7 6.4
2016-Jan-28 12:30N 36°50' W 002°28'0 0.0
2016-Jan-28 11:33N 36°50' W 002°28'0 0.0
2016-Jan-28 10:33N 36°50' W 002°28'0 0.0
2016-Jan-28 09:33N 36°50' W 002°28'0 0.0
2016-Jan-28 08:33N 36°50' W 002°28'0 0.0
2016-Jan-28 07:30N 36°50' W 002°28'0 0.0
2016-Jan-28 06:33N 36°50' W 002°28'2 2.0
2016-Jan-28 05:33N 36°48' W 002°28'4 0.3
2016-Jan-27 13:33N 36°44' W 002°29'6 5.5
2016-Jan-27 12:26N 36°50' W 002°28'0 0.0
2016-Jan-27 11:32N 36°50' W 002°28'0 0.0
2016-Jan-27 10:32N 36°50' W 002°28'0 0.0
2016-Jan-27 09:32N 36°50' W 002°28'0 0.0
2016-Jan-27 08:32N 36°50' W 002°28'1 1.5
2016-Jan-27 07:33N 36°49' W 002°28'1515.3
2016-Jan-27 06:33N 36°34' W 002°32'11 0.6
2016-Jan-26 11:33N 36°44' W 002°29'6 5.8
2016-Jan-26 10:33N 36°50' W 002°28'0 0.0
2016-Jan-26 09:33N 36°50' W 002°28'0 0.0
2016-Jan-26 08:33N 36°50' W 002°28'0 0.0
2016-Jan-26 07:33N 36°50' W 002°28'0 0.0
2016-Jan-26 06:33N 36°50' W 002°28'3 3.1
2016-Jan-26 05:33N 36°47' W 002°28'9 0.5
2016-Jan-25 10:15N 36°38' W 002°31'1115.6
2016-Jan-25 09:34N 36°49' W 002°28'1 1.3
2016-Jan-25 08:29N 36°50' W 002°28'0 0.0
2016-Jan-25 07:32N 36°50' W 002°28'0 0.0
2016-Jan-25 06:32N 36°50' W 002°28'2 2.1
2016-Jan-25 05:33N 36°48' W 002°28'11 0.6
2016-Jan-24 10:11N 36°37' W 002°31'1015.8
2016-Jan-24 09:34N 36°47' W 002°28'3 3.1
2016-Jan-24 08:33N 36°50' W 002°28'0 0.0
2016-Jan-24 07:33N 36°50' W 002°28'0 0.0
2016-Jan-24 06:33N 36°50' W 002°28'2 1.8
2016-Jan-24 05:33N 36°48' W 002°28'1514.7
2016-Jan-24 04:32N 36°34' W 002°32'3 0.1
2016-Jan-23 10:06N 36°36' W 002°32'915.9
2016-Jan-23 09:33N 36°45' W 002°29'5 5.3
2016-Jan-23 08:33N 36°50' W 002°28'0 0.0
2016-Jan-23 07:33N 36°50' W 002°28'0 0.0
2016-Jan-23 06:33N 36°50' W 002°28'2 2.1
2016-Jan-23 05:33N 36°48' W 002°28'1413.9
2016-Jan-23 04:33N 36°34' W 002°32'  
Track history (hours):
 
Tides and Currents Weather Stations Pressure Air Temp Water Temp Dewpoint Dewpoint Depression Visibility Wind Speed Wind Dir Waves Ship Positions

Vronskiy

Last reported at 2016-Feb-01 12:33 UTC. Time now 2016-Feb-14 08:11 UTC.
Position N 36°50' W 002°28'.
Warning: this ship's position is 12 days out of date.

Length 131 m; draft 5.2 m.

Type: Passenger vessel. MMSI: 210030000.

Date/timePositionNaut miles runAvg speedWind from/ knotsBaromVisibWave heightAir tempDewpointWater temp
2016-Feb-01 12:33N 36°50' W 002°28'0 0.0
2016-Feb-01 11:33N 36°50' W 002°28'0 0.0
2016-Feb-01 10:33N 36°50' W 002°28'0 0.0
2016-Feb-01 09:33N 36°50' W 002°28'0 0.0
2016-Feb-01 08:27N 36°50' W 002°28'0 0.0
2016-Feb-01 07:33N 36°50' W 002°28'0 0.0
2016-Feb-01 06:33N 36°50' W 002°28'2 1.9
2016-Feb-01 05:33N 36°48' W 002°27'1212.4
2016-Feb-01 04:32N 36°36' W 002°29'2512.5
2016-Feb-01 02:33N 36°12' W 002°37'1313.5
2016-Feb-01 01:33N 35°59' W 002°42'46 3.8
2016-Jan-31 13:33N 36°43' W 002°29'7 6.5
2016-Jan-31 12:32N 36°50' W 002°28'0 0.0
2016-Jan-31 11:32N 36°50' W 002°28'0 0.0
2016-Jan-31 10:32N 36°50' W 002°28'0 0.0
2016-Jan-31 09:32N 36°50' W 002°28'0 0.0
2016-Jan-31 08:32N 36°50' W 002°28'0 0.0
2016-Jan-31 07:32N 36°50' W 002°28'0 0.0
2016-Jan-31 06:32N 36°50' W 002°28'2 1.6
2016-Jan-31 05:34N 36°49' W 002°28'4 0.3
2016-Jan-30 13:33N 36°45' W 002°29'5 5.4
2016-Jan-30 12:32N 36°50' W 002°28'0 0.0
2016-Jan-30 11:32N 36°50' W 002°28'0 0.0
2016-Jan-30 10:29N 36°50' W 002°28'0 0.0
2016-Jan-30 09:32N 36°50' W 002°28'0 0.0
2016-Jan-30 08:32N 36°50' W 002°28'0 0.0
2016-Jan-30 07:32N 36°50' W 002°28'0 0.0
2016-Jan-30 06:32N 36°50' W 002°28'2 2.2
2016-Jan-30 05:33N 36°48' W 002°28'5 0.3
2016-Jan-29 13:33N 36°43' W 002°29'7 6.7
2016-Jan-29 12:33N 36°50' W 002°28'0 0.0
2016-Jan-29 11:33N 36°50' W 002°28'0 0.0
2016-Jan-29 10:33N 36°50' W 002°28'0 0.0
2016-Jan-29 09:33N 36°50' W 002°28'0 0.0
2016-Jan-29 08:33N 36°50' W 002°28'0 0.0
2016-Jan-29 07:33N 36°50' W 002°28'0 0.0
2016-Jan-29 06:33N 36°50' W 002°28'2 2.2
2016-Jan-29 05:33N 36°48' W 002°27'5 0.3
2016-Jan-28 13:33N 36°43' W 002°29'7 6.4
2016-Jan-28 12:30N 36°50' W 002°28'0 0.0
2016-Jan-28 11:33N 36°50' W 002°28'0 0.0
2016-Jan-28 10:33N 36°50' W 002°28'0 0.0
2016-Jan-28 09:33N 36°50' W 002°28'0 0.0
2016-Jan-28 08:33N 36°50' W 002°28'0 0.0
2016-Jan-28 07:30N 36°50' W 002°28'0 0.0
2016-Jan-28 06:33N 36°50' W 002°28'2 2.0
2016-Jan-28 05:33N 36°48' W 002°28'4 0.3
2016-Jan-27 13:33N 36°44' W 002°29'6 5.5
2016-Jan-27 12:26N 36°50' W 002°28'0 0.0
2016-Jan-27 11:32N 36°50' W 002°28'0 0.0
2016-Jan-27 10:32N 36°50' W 002°28'0 0.0
2016-Jan-27 09:32N 36°50' W 002°28'0 0.0
2016-Jan-27 08:32N 36°50' W 002°28'1 1.5
2016-Jan-27 07:33N 36°49' W 002°28'1515.3
2016-Jan-27 06:33N 36°34' W 002°32'11 0.6
2016-Jan-26 11:33N 36°44' W 002°29'6 5.8
2016-Jan-26 10:33N 36°50' W 002°28'0 0.0
2016-Jan-26 09:33N 36°50' W 002°28'0 0.0
2016-Jan-26 08:33N 36°50' W 002°28'0 0.0
2016-Jan-26 07:33N 36°50' W 002°28'0 0.0
2016-Jan-26 06:33N 36°50' W 002°28'3 3.1
2016-Jan-26 05:33N 36°47' W 002°28'9 0.5
2016-Jan-25 10:15N 36°38' W 002°31'1115.6
2016-Jan-25 09:34N 36°49' W 002°28'1 1.3
2016-Jan-25 08:29N 36°50' W 002°28'0 0.0
2016-Jan-25 07:32N 36°50' W 002°28'0 0.0
2016-Jan-25 06:32N 36°50' W 002°28'2 2.1
2016-Jan-25 05:33N 36°48' W 002°28'11 0.6
2016-Jan-24 10:11N 36°37' W 002°31'1015.8
2016-Jan-24 09:34N 36°47' W 002°28'3 3.1
2016-Jan-24 08:33N 36°50' W 002°28'0 0.0
2016-Jan-24 07:33N 36°50' W 002°28'0 0.0
2016-Jan-24 06:33N 36°50' W 002°28'2 1.8
2016-Jan-24 05:33N 36°48' W 002°28'1514.7
2016-Jan-24 04:32N 36°34' W 002°32'3 0.1
2016-Jan-23 10:06N 36°36' W 002°32'915.9
2016-Jan-23 09:33N 36°45' W 002°29'5 5.3
2016-Jan-23 08:33N 36°50' W 002°28'0 0.0
2016-Jan-23 07:33N 36°50' W 002°28'0 0.0
2016-Jan-23 06:33N 36°50' W 002°28'2 2.1
2016-Jan-23 05:33N 36°48' W 002°28'1413.9
2016-Jan-23 04:33N 36°34' W 002°32'  

Dump ship's entire track history